Terminal Aerodrome Forecast
Issued by NWS

Home | Current Version | Previous Version | Graphics & Text | Print | Product List | Glossary On
Versions: 1 2 3 4 5 6 7 8 9 10 11 12 13 14 15 16 17 18 19 20 21 22 23 24 25 26 27 28 29 30 31 32 33 34 35
000
FTUS43 KLOT 010907 AAA
TAFDPA
TAF AMD
KDPA 010907Z 0109/0206 28006KT P6SM SKC
     FM011500 28011G17KT P6SM SCT060 BKN100
     FM011700 28014G21KT P6SM FEW080 SCT250
     FM020200 26008KT P6SM SCT250=

USA.gov is the U.S. government's official web portal to all federal, state and local government web resources and services.